Time;durP1;ratioP1;P1;durP2;ratioP2;P2;SDS_P1;SDS_P2;PMS_P1;PMS_P2;Temp;Humidity;BMP_temperature;BMP_pressure;BME280_temperature;BME280_humidity;BME280_pressure;Samples;Min_cycle;Max_cycle;Signal;HPM_P1;HPM_P2
2022/09/22 00:00:30;;;;;;;0.20;0.10;;;;;;;;;;4914395;28;20045;-82
2022/09/22 00:02:59;;;;;;;0.20;0.10;;;;;;;;;;4945841;28;21319;-82
2022/09/22 00:05:25;;;;;;;0.20;0.10;;;;;;;;;;4914461;28;20122;-82
2022/09/22 00:07:52;;;;;;;0.20;0.10;;;;;;;;;;4945222;28;20512;-81
2022/09/22 00:10:21;;;;;;;0.20;0.10;;;;;;;;;;4932903;28;20497;-82
2022/09/22 00:12:48;;;;;;;0.20;0.10;;;;;;;;;;4942671;28;20401;-82
2022/09/22 00:15:15;;;;;;;0.20;0.10;;;;;;;;;;4942112;28;20413;-81
2022/09/22 00:17:41;;;;;;;0.20;0.10;;;;;;;;;;4928644;28;20049;-82
2022/09/22 00:20:08;;;;;;;0.20;0.10;;;;;;;;;;4943080;28;20043;-82
2022/09/22 00:22:34;;;;;;;0.20;0.10;;;;;;;;;;4931876;28;20131;-82
2022/09/22 00:25:00;;;;;;;0.20;0.10;;;;;;;;;;4926854;28;20043;-81
2022/09/22 00:27:26;;;;;;;0.20;0.10;;;;;;;;;;4926855;28;20757;-82
2022/09/22 00:29:52;;;;;;;0.20;0.10;;;;;;;;;;4944274;28;20035;-82
2022/09/22 00:32:18;;;;;;;0.20;0.10;;;;;;;;;;4939446;28;20536;-81
2022/09/22 00:34:45;;;;;;;0.20;0.00;;;;;;;;;;4941674;28;20035;-81
2022/09/22 00:37:11;;;;;;;0.20;0.10;;;;;;;;;;4940905;28;20133;-82
2022/09/22 00:39:37;;;;;;;0.20;0.10;;;;;;;;;;4942838;28;20035;-81
2022/09/22 00:42:03;;;;;;;0.20;0.10;;;;;;;;;;4930687;28;20039;-82
2022/09/22 00:44:35;;;;;;;0.20;0.10;;;;;;;;;;4924942;28;20513;-82
2022/09/22 00:47:04;;;;;;;0.20;0.10;;;;;;;;;;4940010;28;20058;-81
2022/09/22 00:49:46;;;;;;;0.20;0.10;;;;;;;;;;4942886;28;20497;-82
2022/09/22 00:52:14;;;;;;;0.20;0.10;;;;;;;;;;4940448;28;20112;-82
2022/09/22 00:54:40;;;;;;;0.20;0.00;;;;;;;;;;4940759;28;20054;-81
2022/09/22 00:57:08;;;;;;;0.20;0.10;;;;;;;;;;4930611;28;20042;-81
2022/09/22 00:59:35;;;;;;;0.20;0.10;;;;;;;;;;4929294;28;20045;-82
2022/09/22 01:02:01;;;;;;;0.20;0.10;;;;;;;;;;4927039;28;20066;-82
2022/09/22 01:04:29;;;;;;;0.20;0.00;;;;;;;;;;4930544;28;20501;-82
2022/09/22 01:06:57;;;;;;;0.20;0.10;;;;;;;;;;4927562;28;20457;-82
2022/09/22 01:09:23;;;;;;;0.20;0.10;;;;;;;;;;4938386;28;20047;-82
2022/09/22 01:11:49;;;;;;;0.20;0.10;;;;;;;;;;4941256;28;20042;-82
2022/09/22 01:14:22;;;;;;;0.20;0.10;;;;;;;;;;4936711;28;20035;-81
2022/09/22 01:16:52;;;;;;;0.20;0.10;;;;;;;;;;4945747;28;20049;-81
2022/09/22 01:19:24;;;;;;;0.20;0.10;;;;;;;;;;4944442;28;20039;-82
2022/09/22 01:22:09;;;;;;;0.20;0.10;;;;;;;;;;4928103;28;20075;-82
2022/09/22 01:24:35;;;;;;;0.20;0.10;;;;;;;;;;4944190;28;20126;-83
2022/09/22 01:27:04;;;;;;;0.20;0.08;;;;;;;;;;4940505;28;20130;-82
2022/09/22 01:29:46;;;;;;;0.20;0.10;;;;;;;;;;4929646;28;20066;-82
2022/09/22 01:32:26;;;;;;;0.20;0.10;;;;;;;;;;4941141;28;20137;-81
2022/09/22 01:35:03;;;;;;;0.20;0.10;;;;;;;;;;4928819;28;20043;-81
2022/09/22 01:37:44;;;;;;;0.20;0.10;;;;;;;;;;4940879;28;20046;-82
2022/09/22 01:40:19;;;;;;;0.20;0.10;;;;;;;;;;4929822;28;20031;-82
2022/09/22 01:42:49;;;;;;;0.20;0.10;;;;;;;;;;4942119;28;20039;-80
2022/09/22 01:45:23;;;;;;;0.20;0.10;;;;;;;;;;4928703;28;20428;-82
2022/09/22 01:47:49;;;;;;;0.20;0.10;;;;;;;;;;4953838;28;20512;-82
2022/09/22 01:50:36;;;;;;;0.20;0.10;;;;;;;;;;4937932;28;20046;-81
2022/09/22 01:53:05;;;;;;;0.20;0.10;;;;;;;;;;4939470;28;20066;-82
2022/09/22 01:55:33;;;;;;;0.20;0.10;;;;;;;;;;4942181;28;20066;-82
2022/09/22 01:58:01;;;;;;;0.20;0.00;;;;;;;;;;4939230;28;20065;-81
2022/09/22 02:00:27;;;;;;;0.20;0.10;;;;;;;;;;4938333;28;20049;-82
2022/09/22 02:02:59;;;;;;;0.20;0.10;;;;;;;;;;4927148;28;20140;-82
2022/09/22 02:05:33;;;;;;;0.20;0.08;;;;;;;;;;4940353;28;20035;-82
2022/09/22 02:08:01;;;;;;;0.20;0.10;;;;;;;;;;4938591;28;20035;-81
2022/09/22 02:10:31;;;;;;;0.20;0.10;;;;;;;;;;4940922;28;20516;-82
2022/09/22 02:12:57;;;;;;;0.20;0.10;;;;;;;;;;4937607;28;20047;-81
2022/09/22 02:18:14;;;;;;;0.20;0.10;;;;;;;;;;4930004;28;20077;-81
2022/09/22 02:20:40;;;;;;;0.20;0.10;;;;;;;;;;4943201;28;20069;-81
2022/09/22 02:23:07;;;;;;;0.20;0.10;;;;;;;;;;4925763;28;20125;-81
2022/09/22 02:25:33;;;;;;;0.20;0.10;;;;;;;;;;4924727;28;20050;-82
2022/09/22 02:27:59;;;;;;;0.20;0.10;;;;;;;;;;4940864;28;20323;-81
2022/09/22 02:30:26;;;;;;;0.20;0.10;;;;;;;;;;4930113;28;20051;-82
2022/09/22 02:32:53;;;;;;;0.20;0.08;;;;;;;;;;4949133;28;20046;-82
2022/09/22 02:35:20;;;;;;;0.20;0.10;;;;;;;;;;4932742;28;20407;-82
2022/09/22 02:37:46;;;;;;;0.20;0.10;;;;;;;;;;4932154;28;20047;-81
2022/09/22 02:40:21;;;;;;;0.20;0.10;;;;;;;;;;4944797;28;20069;-81
2022/09/22 02:42:51;;;;;;;0.20;0.10;;;;;;;;;;4945740;28;20044;-82
2022/09/22 02:45:38;;;;;;;0.20;0.10;;;;;;;;;;4946745;28;20710;-82
2022/09/22 02:48:09;;;;;;;0.20;0.10;;;;;;;;;;4944140;28;20055;-81
2022/09/22 02:50:35;;;;;;;0.20;0.10;;;;;;;;;;4943671;28;20047;-81
2022/09/22 02:53:03;;;;;;;0.20;0.10;;;;;;;;;;4945630;28;20130;-82
2022/09/22 02:55:30;;;;;;;0.20;0.00;;;;;;;;;;4933334;28;20034;-82
2022/09/22 02:57:56;;;;;;;0.20;0.10;;;;;;;;;;4942676;28;20307;-81
2022/09/22 03:00:22;;;;;;;0.20;0.00;;;;;;;;;;4932582;28;20097;-82
2022/09/22 03:02:48;;;;;;;0.20;0.10;;;;;;;;;;4915962;28;20097;-82
2022/09/22 03:05:14;;;;;;;0.20;0.10;;;;;;;;;;4945715;28;20050;-82
2022/09/22 03:07:40;;;;;;;0.20;0.10;;;;;;;;;;4931656;28;20506;-81
2022/09/22 03:10:07;;;;;;;0.20;0.10;;;;;;;;;;4927607;28;20054;-82
2022/09/22 03:12:33;;;;;;;0.20;0.10;;;;;;;;;;4942666;28;20062;-81
2022/09/22 03:14:59;;;;;;;0.20;0.00;;;;;;;;;;4932287;28;20533;-81
2022/09/22 03:17:25;;;;;;;0.20;0.10;;;;;;;;;;4943887;28;20498;-81
2022/09/22 03:19:51;;;;;;;0.20;0.10;;;;;;;;;;4910370;28;20069;-81
2022/09/22 03:22:17;;;;;;;0.20;0.10;;;;;;;;;;4945291;28;20039;-81
2022/09/22 03:24:43;;;;;;;0.20;0.10;;;;;;;;;;4932852;28;20129;-82
2022/09/22 03:27:09;;;;;;;0.20;0.10;;;;;;;;;;4932336;28;20130;-82
2022/09/22 03:29:35;;;;;;;0.20;0.10;;;;;;;;;;4941703;28;20114;-82
2022/09/22 03:32:02;;;;;;;0.20;0.10;;;;;;;;;;4931766;28;20031;-82
2022/09/22 03:34:28;;;;;;;0.20;0.20;;;;;;;;;;4931110;28;20584;-82
2022/09/22 03:36:54;;;;;;;0.20;0.00;;;;;;;;;;4930268;28;20039;-82
2022/09/22 03:39:20;;;;;;;0.20;0.10;;;;;;;;;;4912930;28;20140;-82
2022/09/22 03:41:46;;;;;;;0.20;0.10;;;;;;;;;;4943762;28;20413;-82
2022/09/22 03:44:12;;;;;;;0.20;0.10;;;;;;;;;;4943218;28;20410;-82
2022/09/22 03:46:38;;;;;;;0.20;0.10;;;;;;;;;;4931821;28;20501;-82
2022/09/22 03:49:04;;;;;;;0.20;0.10;;;;;;;;;;4914786;28;20528;-82
2022/09/22 03:51:30;;;;;;;0.20;0.10;;;;;;;;;;4929555;28;20039;-82
2022/09/22 03:53:56;;;;;;;0.20;0.10;;;;;;;;;;4931036;28;20054;-82
2022/09/22 03:56:22;;;;;;;0.20;0.10;;;;;;;;;;4914016;28;20073;-81
2022/09/22 03:58:48;;;;;;;0.20;0.00;;;;;;;;;;4912442;28;20039;-81
2022/09/22 04:01:14;;;;;;;0.20;0.00;;;;;;;;;;4926964;28;20039;-82
2022/09/22 04:03:40;;;;;;;0.20;0.10;;;;;;;;;;4943674;28;20081;-82
2022/09/22 04:06:07;;;;;;;0.20;0.10;;;;;;;;;;4932997;28;20046;-82
2022/09/22 04:08:33;;;;;;;0.30;0.25;;;;;;;;;;4945248;28;20041;-82
2022/09/22 04:11:00;;;;;;;0.20;0.10;;;;;;;;;;4931930;28;20050;-82
2022/09/22 04:13:26;;;;;;;0.20;0.10;;;;;;;;;;4947439;28;20046;-82
2022/09/22 04:15:52;;;;;;;0.20;0.05;;;;;;;;;;4912766;28;20481;-82
2022/09/22 04:18:19;;;;;;;0.20;0.10;;;;;;;;;;4932328;28;20428;-82
2022/09/22 04:20:45;;;;;;;0.20;0.05;;;;;;;;;;4946188;28;20368;-82
2022/09/22 04:23:16;;;;;;;0.20;0.10;;;;;;;;;;4960232;28;20034;-83
2022/09/22 04:25:42;;;;;;;0.20;0.10;;;;;;;;;;4945221;28;20105;-83
2022/09/22 04:28:10;;;;;;;0.20;0.10;;;;;;;;;;4986740;23;20149;-89
2022/09/22 04:30:36;;;;;;;0.20;0.10;;;;;;;;;;4932506;28;20067;-88
2022/09/22 04:33:05;;;;;;;0.20;0.10;;;;;;;;;;4949944;28;20039;-88
2022/09/22 04:35:34;;;;;;;0.20;0.10;;;;;;;;;;4947998;28;20043;-88
2022/09/22 04:38:03;;;;;;;0.20;0.10;;;;;;;;;;4933625;28;21310;-89
2022/09/22 04:40:29;;;;;;;0.20;0.10;;;;;;;;;;4930099;28;20074;-89
2022/09/22 04:42:56;;;;;;;0.20;0.10;;;;;;;;;;4914119;28;20057;-88
2022/09/22 04:45:25;;;;;;;0.20;0.10;;;;;;;;;;4931898;28;20082;-88
2022/09/22 04:47:52;;;;;;;0.20;0.10;;;;;;;;;;4916800;28;20131;-88
2022/09/22 04:50:19;;;;;;;0.20;0.10;;;;;;;;;;4932465;28;20126;-88
2022/09/22 04:52:46;;;;;;;0.20;0.10;;;;;;;;;;4931321;28;20502;-88
2022/09/22 04:55:19;;;;;;;0.20;0.10;;;;;;;;;;4929486;29;20094;-88
2022/09/22 04:57:59;;;;;;;0.20;0.10;;;;;;;;;;4932783;28;20051;-87
2022/09/22 05:00:33;;;;;;;0.20;0.10;;;;;;;;;;4919852;28;20098;-88
2022/09/22 05:03:07;;;;;;;0.20;0.10;;;;;;;;;;4931616;28;20046;-88
2022/09/22 05:05:35;;;;;;;0.20;0.10;;;;;;;;;;4934828;28;20050;-89
2022/09/22 05:08:09;;;;;;;0.20;0.10;;;;;;;;;;4922901;28;20108;-89
2022/09/22 05:10:38;;;;;;;0.20;0.10;;;;;;;;;;4934180;28;20129;-88
2022/09/22 05:13:07;;;;;;;0.20;0.05;;;;;;;;;;4909618;28;20034;-89
2022/09/22 05:15:39;;;;;;;0.20;0.10;;;;;;;;;;4910061;28;20045;-88
2022/09/22 05:18:07;;;;;;;0.20;0.10;;;;;;;;;;4973082;23;20038;-88
2022/09/22 05:20:38;;;;;;;0.20;0.10;;;;;;;;;;4959131;28;20555;-89
2022/09/22 05:23:07;;;;;;;0.20;0.10;;;;;;;;;;4992212;28;20088;-89
2022/09/22 05:25:47;;;;;;;0.20;0.10;;;;;;;;;;4944040;28;20449;-88
2022/09/22 05:28:25;;;;;;;0.20;0.10;;;;;;;;;;4957823;28;20518;-87
2022/09/22 05:30:52;;;;;;;0.20;0.10;;;;;;;;;;4966526;23;20093;-82
2022/09/22 05:33:18;;;;;;;0.20;0.10;;;;;;;;;;4967961;28;20073;-82
2022/09/22 05:35:45;;;;;;;0.20;0.10;;;;;;;;;;4975499;28;20045;-82
2022/09/22 05:38:11;;;;;;;0.20;0.10;;;;;;;;;;4969532;28;20450;-83
2022/09/22 05:40:37;;;;;;;0.20;0.10;;;;;;;;;;4965899;28;20060;-83
2022/09/22 05:43:03;;;;;;;0.20;0.10;;;;;;;;;;4954049;28;20057;-83
2022/09/22 05:45:29;;;;;;;0.20;0.10;;;;;;;;;;4970295;28;20515;-83
2022/09/22 05:47:55;;;;;;;0.20;0.10;;;;;;;;;;4956601;28;20045;-82
2022/09/22 05:50:22;;;;;;;0.20;0.10;;;;;;;;;;4972343;28;20057;-83
2022/09/22 05:52:48;;;;;;;0.20;0.10;;;;;;;;;;4955880;28;20056;-82
2022/09/22 05:55:15;;;;;;;0.20;0.10;;;;;;;;;;4972453;28;20052;-83
2022/09/22 05:57:42;;;;;;;0.20;0.10;;;;;;;;;;4953131;28;20038;-83
2022/09/22 06:00:09;;;;;;;0.20;0.10;;;;;;;;;;4955740;28;20133;-82
2022/09/22 06:02:35;;;;;;;0.20;0.10;;;;;;;;;;4956370;28;20034;-82
2022/09/22 06:05:01;;;;;;;0.20;0.00;;;;;;;;;;4956817;28;20046;-83
2022/09/22 06:07:27;;;;;;;0.20;0.10;;;;;;;;;;4955577;28;20592;-83
2022/09/22 06:09:54;;;;;;;0.20;0.10;;;;;;;;;;4955966;28;20521;-83
2022/09/22 06:12:20;;;;;;;0.20;0.10;;;;;;;;;;4967456;28;20100;-83
2022/09/22 06:14:46;;;;;;;0.20;0.20;;;;;;;;;;4956446;28;20034;-83
2022/09/22 06:17:12;;;;;;;0.20;0.05;;;;;;;;;;4951045;28;20039;-84
2022/09/22 06:19:38;;;;;;;0.20;0.10;;;;;;;;;;4967556;28;20069;-84
2022/09/22 06:22:04;;;;;;;0.20;0.10;;;;;;;;;;4935813;28;20100;-84
2022/09/22 06:24:31;;;;;;;0.20;0.10;;;;;;;;;;4957961;28;20184;-83
2022/09/22 06:26:57;;;;;;;0.20;0.10;;;;;;;;;;4952152;28;20129;-84
2022/09/22 06:29:23;;;;;;;0.20;0.10;;;;;;;;;;4930937;28;20490;-84
2022/09/22 06:31:49;;;;;;;0.20;0.10;;;;;;;;;;4952630;28;20135;-84
2022/09/22 06:34:15;;;;;;;0.20;0.00;;;;;;;;;;4947109;28;20042;-84
2022/09/22 06:36:44;;;;;;;0.20;0.10;;;;;;;;;;4961898;28;20062;-84
2022/09/22 06:39:11;;;;;;;0.20;0.10;;;;;;;;;;4944703;28;20065;-84
2022/09/22 06:41:37;;;;;;;0.20;0.10;;;;;;;;;;4947199;28;20125;-84
2022/09/22 06:44:04;;;;;;;0.20;0.10;;;;;;;;;;4947689;28;20042;-84
2022/09/22 06:46:32;;;;;;;0.20;0.10;;;;;;;;;;4963123;28;20054;-84
2022/09/22 06:48:59;;;;;;;0.20;0.10;;;;;;;;;;4962498;28;20405;-84
2022/09/22 06:51:26;;;;;;;0.20;0.10;;;;;;;;;;4948017;28;21752;-84
2022/09/22 06:53:53;;;;;;;0.20;0.03;;;;;;;;;;4946792;28;20030;-84
2022/09/22 06:56:20;;;;;;;0.20;0.10;;;;;;;;;;4945576;28;20378;-84
2022/09/22 06:58:48;;;;;;;0.20;0.10;;;;;;;;;;4948780;28;20054;-84
2022/09/22 07:01:14;;;;;;;0.20;0.10;;;;;;;;;;4946322;28;20046;-84
2022/09/22 07:03:42;;;;;;;0.20;0.10;;;;;;;;;;4962750;28;20050;-83
2022/09/22 07:06:08;;;;;;;0.20;0.10;;;;;;;;;;4965732;28;20462;-83
2022/09/22 07:08:35;;;;;;;0.52;0.40;;;;;;;;;;4947641;28;20042;-84
2022/09/22 07:11:03;;;;;;;0.20;0.10;;;;;;;;;;4963423;28;20065;-84
2022/09/22 07:13:29;;;;;;;0.20;0.10;;;;;;;;;;4948702;28;20042;-84
2022/09/22 07:16:03;;;;;;;0.20;0.10;;;;;;;;;;4969217;28;20092;-84
2022/09/22 07:18:29;;;;;;;0.20;0.10;;;;;;;;;;4968926;28;20715;-84
2022/09/22 07:21:02;;;;;;;0.20;0.08;;;;;;;;;;4949675;28;20050;-83
2022/09/22 07:23:28;;;;;;;0.20;0.00;;;;;;;;;;4964478;28;20073;-84
2022/09/22 07:26:00;;;;;;;0.20;0.10;;;;;;;;;;4967938;28;20093;-83
2022/09/22 07:28:30;;;;;;;0.20;0.10;;;;;;;;;;4950943;28;20414;-83
2022/09/22 07:30:56;;;;;;;0.20;0.10;;;;;;;;;;4968444;28;20560;-84
2022/09/22 07:33:23;;;;;;;0.20;0.10;;;;;;;;;;4972668;28;20042;-83
2022/09/22 07:35:58;;;;;;;0.20;0.10;;;;;;;;;;4967452;28;20034;-84
2022/09/22 07:38:32;;;;;;;0.20;0.10;;;;;;;;;;4966957;28;20108;-84
2022/09/22 07:41:02;;;;;;;0.20;0.10;;;;;;;;;;4952042;28;20037;-83
2022/09/22 07:43:29;;;;;;;0.20;0.10;;;;;;;;;;4967394;28;20050;-84
2022/09/22 07:45:58;;;;;;;0.20;0.10;;;;;;;;;;4947820;28;20077;-82
2022/09/22 07:51:20;;;;;;;0.20;0.10;;;;;;;;;;4956272;28;20454;-84
2022/09/22 07:53:48;;;;;;;0.20;0.10;;;;;;;;;;4969534;28;20042;-84
2022/09/22 07:56:16;;;;;;;0.20;0.10;;;;;;;;;;4968321;28;20401;-83
2022/09/22 07:58:46;;;;;;;0.20;0.10;;;;;;;;;;4953980;28;20113;-83
2022/09/22 08:01:13;;;;;;;0.20;0.10;;;;;;;;;;4967206;28;20445;-84
2022/09/22 08:03:40;;;;;;;0.20;0.00;;;;;;;;;;4949513;28;20045;-84
2022/09/22 08:06:09;;;;;;;0.20;0.10;;;;;;;;;;4967737;28;20097;-82
2022/09/22 08:08:47;;;;;;;0.20;0.10;;;;;;;;;;4951366;28;20133;-84
2022/09/22 08:11:17;;;;;;;0.20;0.10;;;;;;;;;;4966124;28;20042;-83
2022/09/22 08:13:48;;;;;;;0.20;0.10;;;;;;;;;;4950758;28;20088;-83
2022/09/22 08:16:17;;;;;;;0.20;0.10;;;;;;;;;;4950074;28;20044;-84
2022/09/22 08:18:43;;;;;;;0.20;0.10;;;;;;;;;;4968023;28;20052;-84
2022/09/22 08:21:09;;;;;;;0.20;0.10;;;;;;;;;;4939671;28;20311;-84
2022/09/22 08:23:38;;;;;;;0.20;0.10;;;;;;;;;;4951520;28;20038;-84
2022/09/22 08:26:06;;;;;;;0.20;0.10;;;;;;;;;;4965700;28;20043;-82
2022/09/22 08:28:32;;;;;;;0.20;0.10;;;;;;;;;;4967099;28;20034;-82
2022/09/22 08:30:58;;;;;;;0.20;0.10;;;;;;;;;;4966810;28;20121;-84
2022/09/22 08:33:25;;;;;;;0.20;0.10;;;;;;;;;;4949241;28;20035;-84
2022/09/22 08:35:55;;;;;;;0.20;0.10;;;;;;;;;;4952026;28;20471;-82
2022/09/22 08:38:22;;;;;;;0.20;0.00;;;;;;;;;;4966052;28;20043;-83
2022/09/22 08:41:06;;;;;;;0.20;0.10;;;;;;;;;;4967139;28;20048;-84
2022/09/22 08:43:32;;;;;;;0.20;0.10;;;;;;;;;;4965206;28;20076;-82
2022/09/22 08:46:00;;;;;;;0.20;0.10;;;;;;;;;;4966324;28;20557;-84
2022/09/22 08:54:04;;;;;;;0.20;0.10;;;;;;;;;;4965071;28;20046;-85
2022/09/22 08:56:36;;;;;;;0.20;0.10;;;;;;;;;;4937519;28;20038;-82
2022/09/22 08:59:02;;;;;;;;;;;;;;;;;;4951494;28;20120;-83
2022/09/22 09:01:41;;;;;;;0.20;0.10;;;;;;;;;;4980465;28;20383;-85
2022/09/22 09:04:17;;;;;;;0.20;0.20;;;;;;;;;;4965109;28;20504;-83
2022/09/22 09:06:49;;;;;;;0.20;0.10;;;;;;;;;;4966678;28;20048;-83
2022/09/22 09:09:18;;;;;;;0.20;0.10;;;;;;;;;;4965269;28;20543;-84
2022/09/22 09:11:47;;;;;;;0.20;0.10;;;;;;;;;;4967230;28;20126;-83
2022/09/22 09:14:17;;;;;;;0.20;0.10;;;;;;;;;;4966704;28;20062;-82
2022/09/22 09:16:47;;;;;;;0.20;0.10;;;;;;;;;;4954995;28;20238;-85
2022/09/22 09:19:13;;;;;;;0.20;0.10;;;;;;;;;;4949707;28;20042;-84
2022/09/22 09:21:42;;;;;;;0.20;0.10;;;;;;;;;;4964971;28;20601;-83
2022/09/22 09:24:19;;;;;;;0.20;0.10;;;;;;;;;;4967348;28;20045;-83
2022/09/22 09:26:47;;;;;;;0.20;0.10;;;;;;;;;;4949723;28;20046;-84
2022/09/22 09:29:17;;;;;;;0.20;0.10;;;;;;;;;;4959747;28;20042;-84
2022/09/22 09:31:47;;;;;;;0.20;0.10;;;;;;;;;;4949539;28;20519;-82
2022/09/22 09:34:18;;;;;;;0.20;0.10;;;;;;;;;;4965961;28;20081;-85
2022/09/22 09:37:00;;;;;;;0.20;0.10;;;;;;;;;;4964636;28;20493;-82
2022/09/22 09:39:26;;;;;;;0.20;0.10;;;;;;;;;;4966729;28;20131;-83
2022/09/22 09:41:54;;;;;;;0.20;0.10;;;;;;;;;;4965313;28;20049;-83
2022/09/22 09:44:28;;;;;;;0.20;0.10;;;;;;;;;;4932215;28;20065;-85
2022/09/22 09:47:06;;;;;;;0.20;0.10;;;;;;;;;;4948382;28;20049;-82
2022/09/22 09:49:33;;;;;;;0.20;0.10;;;;;;;;;;4965716;28;20047;-84
2022/09/22 09:52:03;;;;;;;0.20;0.10;;;;;;;;;;4950069;28;21163;-84
2022/09/22 09:54:29;;;;;;;0.20;0.10;;;;;;;;;;4951056;28;20034;-84
2022/09/22 09:57:08;;;;;;;0.20;0.10;;;;;;;;;;4966372;28;20622;-84
2022/09/22 10:02:30;;;;;;;0.20;0.10;;;;;;;;;;4966331;28;20132;-83
2022/09/22 10:05:06;;;;;;;0.20;0.10;;;;;;;;;;4951225;28;20461;-84
2022/09/22 10:07:41;;;;;;;0.20;0.10;;;;;;;;;;4950000;28;20050;-82
2022/09/22 10:10:25;;;;;;;0.20;0.10;;;;;;;;;;4963001;28;20050;-84
2022/09/22 10:12:52;;;;;;;0.20;0.10;;;;;;;;;;4949250;28;20038;-83
2022/09/22 10:15:22;;;;;;;0.20;0.10;;;;;;;;;;4965204;28;20045;-83
2022/09/22 10:17:48;;;;;;;0.20;0.10;;;;;;;;;;4949960;28;20065;-83
2022/09/22 10:20:25;;;;;;;0.20;0.10;;;;;;;;;;4933510;28;20034;-83
2022/09/22 10:22:51;;;;;;;0.20;0.10;;;;;;;;;;4963130;28;20130;-84
2022/09/22 10:25:31;;;;;;;0.20;0.00;;;;;;;;;;4964362;28;20044;-85
2022/09/22 10:28:08;;;;;;;0.20;0.10;;;;;;;;;;4965154;28;20044;-84
2022/09/22 10:30:37;;;;;;;0.20;0.10;;;;;;;;;;4965266;28;20042;-83
2022/09/22 10:33:23;;;;;;;0.20;0.00;;;;;;;;;;4936657;28;20045;-84
2022/09/22 10:35:54;;;;;;;0.20;0.10;;;;;;;;;;4981425;28;20782;-85
2022/09/22 10:38:25;;;;;;;0.20;0.10;;;;;;;;;;4964837;28;20073;-83
2022/09/22 10:40:56;;;;;;;0.20;0.10;;;;;;;;;;4964515;28;20416;-84
2022/09/22 10:43:30;;;;;;;0.20;0.10;;;;;;;;;;4945621;28;20045;-84
2022/09/22 10:46:15;;;;;;;0.20;0.03;;;;;;;;;;4963747;28;20049;-84
2022/09/22 10:48:52;;;;;;;0.20;0.10;;;;;;;;;;4964214;28;20117;-82
2022/09/22 10:51:21;;;;;;;0.20;0.10;;;;;;;;;;4950264;28;20870;-84
2022/09/22 10:54:06;;;;;;;0.20;0.10;;;;;;;;;;4951951;28;20046;-84
2022/09/22 10:56:44;;;;;;;0.20;0.10;;;;;;;;;;4967073;28;20140;-84
2022/09/22 10:59:22;;;;;;;0.20;0.10;;;;;;;;;;4967360;28;20046;-83
2022/09/22 11:02:07;;;;;;;0.20;0.10;;;;;;;;;;4950469;28;20203;-84
2022/09/22 11:04:41;;;;;;;0.20;0.10;;;;;;;;;;4967731;28;20034;-83
2022/09/22 11:13:33;;;;;;;0.20;0.10;;;;;;;;;;4968181;28;20128;-84
2022/09/22 11:15:59;;;;;;;0.20;0.17;;;;;;;;;;4951878;28;20164;-81
2022/09/22 11:18:36;;;;;;;0.20;0.10;;;;;;;;;;4968572;28;21761;-82
2022/09/22 11:21:02;;;;;;;0.20;0.10;;;;;;;;;;4965421;28;20054;-82
2022/09/22 11:23:48;;;;;;;0.20;0.10;;;;;;;;;;4966816;28;20034;-84
2022/09/22 11:26:27;;;;;;;0.20;0.10;;;;;;;;;;4950113;28;20070;-83
2022/09/22 11:29:05;;;;;;;0.20;0.10;;;;;;;;;;4950949;28;20041;-84
2022/09/22 11:31:43;;;;;;;0.20;0.10;;;;;;;;;;4989583;22;20054;-83
2022/09/22 11:34:20;;;;;;;0.20;0.10;;;;;;;;;;4995492;28;20497;-85
2022/09/22 11:36:58;;;;;;;0.20;0.10;;;;;;;;;;4968254;28;20496;-84
2022/09/22 11:39:30;;;;;;;0.20;0.10;;;;;;;;;;4965131;28;20038;-85
2022/09/22 11:42:15;;;;;;;0.20;0.10;;;;;;;;;;4981345;28;20042;-85
2022/09/22 11:45:07;;;;;;;0.20;0.10;;;;;;;;;;4970382;28;20132;-85
2022/09/22 11:47:46;;;;;;;0.20;0.10;;;;;;;;;;4962107;28;20563;-83
2022/09/22 11:50:12;;;;;;;0.20;0.10;;;;;;;;;;4984886;28;20933;-83
2022/09/22 11:52:48;;;;;;;0.20;0.10;;;;;;;;;;4982114;28;20077;-84
2022/09/22 11:55:40;;;;;;;0.20;0.10;;;;;;;;;;4982808;28;20042;-85
2022/09/22 11:58:10;;;;;;;0.20;0.10;;;;;;;;;;4962323;28;20125;-83
2022/09/22 12:00:41;;;;;;;0.20;0.10;;;;;;;;;;4982819;28;20050;-81
2022/09/22 12:03:11;;;;;;;0.20;0.10;;;;;;;;;;4969592;28;20489;-84
2022/09/22 12:05:38;;;;;;;0.20;0.00;;;;;;;;;;4968479;28;20088;-83
2022/09/22 12:08:04;;;;;;;0.20;0.10;;;;;;;;;;4981302;28;20050;-84
2022/09/22 12:10:38;;;;;;;0.20;0.10;;;;;;;;;;4984312;28;20110;-84
2022/09/22 12:13:07;;;;;;;0.20;0.17;;;;;;;;;;4963854;28;20628;-84
2022/09/22 12:15:39;;;;;;;0.20;0.10;;;;;;;;;;4982113;28;20078;-82
2022/09/22 12:18:31;;;;;;;0.20;0.08;;;;;;;;;;4979954;28;20160;-86
2022/09/22 12:21:06;;;;;;;0.20;0.10;;;;;;;;;;4963677;28;20066;-83
2022/09/22 12:23:32;;;;;;;0.20;0.10;;;;;;;;;;4965408;28;20038;-84
2022/09/22 12:26:01;;;;;;;0.20;0.00;;;;;;;;;;4969700;28;20859;-86
2022/09/22 12:28:28;;;;;;;0.20;0.10;;;;;;;;;;4967744;28;21084;-86
2022/09/22 12:31:02;;;;;;;0.20;0.10;;;;;;;;;;4960369;28;20075;-85
2022/09/22 12:33:29;;;;;;;0.20;0.10;;;;;;;;;;4978386;28;20036;-86
2022/09/22 12:35:56;;;;;;;0.43;0.20;;;;;;;;;;4963385;28;20452;-85
2022/09/22 12:38:23;;;;;;;0.40;0.20;;;;;;;;;;4969616;28;20130;-87
2022/09/22 12:40:50;;;;;;;0.20;0.10;;;;;;;;;;4961022;28;20499;-86
2022/09/22 12:43:18;;;;;;;0.25;0.10;;;;;;;;;;4981974;28;20053;-87
2022/09/22 12:45:44;;;;;;;0.20;0.10;;;;;;;;;;4962751;28;20045;-86
2022/09/22 12:48:21;;;;;;;0.20;0.10;;;;;;;;;;4981748;28;20452;-85
2022/09/22 12:50:47;;;;;;;0.20;0.10;;;;;;;;;;4980327;28;20048;-87
2022/09/22 12:53:27;;;;;;;0.20;0.10;;;;;;;;;;4978703;28;20512;-84
2022/09/22 12:55:57;;;;;;;0.20;0.10;;;;;;;;;;4962194;28;20221;-86
2022/09/22 12:58:23;;;;;;;0.20;0.10;;;;;;;;;;4997201;28;20124;-87
2022/09/22 13:01:15;;;;;;;0.20;0.03;;;;;;;;;;4966795;28;20587;-85
2022/09/22 13:03:49;;;;;;;0.20;0.03;;;;;;;;;;4980540;28;20125;-86
2022/09/22 13:06:21;;;;;;;0.20;0.10;;;;;;;;;;4958143;28;20045;-85
2022/09/22 13:08:53;;;;;;;0.20;0.10;;;;;;;;;;4961575;28;20045;-86
2022/09/22 13:11:39;;;;;;;0.20;0.10;;;;;;;;;;4969279;28;20090;-86
2022/09/22 13:14:25;;;;;;;0.20;0.10;;;;;;;;;;4970071;28;20041;-85
2022/09/22 13:16:51;;;;;;;0.20;0.00;;;;;;;;;;4964628;28;20077;-85
2022/09/22 13:19:17;;;;;;;0.20;0.10;;;;;;;;;;4963442;28;20057;-87
2022/09/22 13:21:43;;;;;;;0.20;0.10;;;;;;;;;;4948553;28;20572;-85
2022/09/22 13:24:18;;;;;;;0.20;0.10;;;;;;;;;;4979683;28;20038;-86
2022/09/22 13:26:44;;;;;;;0.20;0.10;;;;;;;;;;4979784;28;20100;-85
2022/09/22 13:29:20;;;;;;;0.20;0.10;;;;;;;;;;4995671;28;20038;-84
2022/09/22 13:31:54;;;;;;;0.20;0.10;;;;;;;;;;4994327;28;20129;-86
2022/09/22 13:34:36;;;;;;;0.20;0.10;;;;;;;;;;4962541;28;20128;-86
2022/09/22 13:37:06;;;;;;;0.20;0.10;;;;;;;;;;4950636;28;20029;-86
2022/09/22 13:39:33;;;;;;;0.20;0.10;;;;;;;;;;4968173;28;20088;-85
2022/09/22 13:42:08;;;;;;;0.20;0.10;;;;;;;;;;4974495;28;20038;-86
2022/09/22 13:44:36;;;;;;;0.20;0.10;;;;;;;;;;4964986;28;20037;-84
2022/09/22 13:47:05;;;;;;;0.20;0.10;;;;;;;;;;4967127;28;20552;-85
2022/09/22 13:49:31;;;;;;;0.20;0.10;;;;;;;;;;4981331;28;20142;-86
2022/09/22 13:52:06;;;;;;;0.20;0.10;;;;;;;;;;4980005;28;20456;-86
2022/09/22 13:54:36;;;;;;;0.20;0.10;;;;;;;;;;4967442;28;20440;-85
2022/09/22 13:57:07;;;;;;;0.20;0.05;;;;;;;;;;4967274;28;20524;-86
2022/09/22 13:59:38;;;;;;;0.20;0.10;;;;;;;;;;4967131;28;20040;-85
2022/09/22 14:02:06;;;;;;;0.20;0.10;;;;;;;;;;4978498;28;20117;-85
2022/09/22 14:04:33;;;;;;;0.65;0.65;;;;;;;;;;4960538;28;20460;-84
2022/09/22 14:07:01;;;;;;;0.20;0.10;;;;;;;;;;4970824;28;20496;-88
2022/09/22 14:09:27;;;;;;;0.20;0.10;;;;;;;;;;4966418;28;20717;-84
2022/09/22 14:11:55;;;;;;;0.20;0.10;;;;;;;;;;4960200;28;20038;-87
2022/09/22 14:14:25;;;;;;;0.20;0.10;;;;;;;;;;4939991;28;20066;-86
2022/09/22 14:16:57;;;;;;;0.20;0.10;;;;;;;;;;4962479;28;20377;-85
2022/09/22 14:19:33;;;;;;;0.20;0.10;;;;;;;;;;4979413;28;20517;-85
2022/09/22 14:22:01;;;;;;;0.20;0.10;;;;;;;;;;4984611;28;20101;-85
2022/09/22 14:24:28;;;;;;;0.20;0.10;;;;;;;;;;4958245;28;20030;-85
2022/09/22 14:26:57;;;;;;;0.20;0.10;;;;;;;;;;4980933;28;20511;-86
2022/09/22 14:29:25;;;;;;;0.20;0.10;;;;;;;;;;4978239;28;20089;-85
2022/09/22 14:32:05;;;;;;;0.20;0.10;;;;;;;;;;4961510;28;20048;-87
2022/09/22 14:34:32;;;;;;;0.20;0.10;;;;;;;;;;4960255;28;20050;-84
2022/09/22 14:37:00;;;;;;;0.20;0.10;;;;;;;;;;4959353;28;20167;-85
2022/09/22 14:39:37;;;;;;;0.20;0.10;;;;;;;;;;4973963;28;20493;-86
2022/09/22 14:42:10;;;;;;;0.20;0.10;;;;;;;;;;4960566;28;20700;-84
2022/09/22 14:44:44;;;;;;;0.20;0.10;;;;;;;;;;4966634;28;20544;-84
2022/09/22 14:47:23;;;;;;;0.20;0.10;;;;;;;;;;4972453;28;20105;-85
2022/09/22 14:49:49;;;;;;;0.20;0.10;;;;;;;;;;4975148;28;20481;-86
2022/09/22 14:52:23;;;;;;;0.20;0.10;;;;;;;;;;4963487;28;20052;-85
2022/09/22 14:54:50;;;;;;;0.20;0.10;;;;;;;;;;4961862;28;20042;-84
2022/09/22 14:57:16;;;;;;;0.20;0.10;;;;;;;;;;4985275;28;20041;-85
2022/09/22 15:02:37;;;;;;;0.20;0.10;;;;;;;;;;4982521;28;20053;-85
2022/09/22 15:05:04;;;;;;;0.20;0.10;;;;;;;;;;4973359;28;20573;-85
2022/09/22 15:07:34;;;;;;;0.20;0.10;;;;;;;;;;4972293;28;20310;-86
2022/09/22 15:10:03;;;;;;;0.20;0.10;;;;;;;;;;4984929;28;20046;-86
2022/09/22 15:12:37;;;;;;;0.20;0.10;;;;;;;;;;4965478;28;20630;-86
2022/09/22 15:15:14;;;;;;;0.20;0.10;;;;;;;;;;4993446;28;20488;-85
2022/09/22 15:20:45;;;;;;;0.20;0.10;;;;;;;;;;4980516;28;20038;-84
2022/09/22 15:23:11;;;;;;;0.20;0.10;;;;;;;;;;4986409;28;20295;-84
2022/09/22 15:25:37;;;;;;;0.20;0.10;;;;;;;;;;4966160;28;20459;-86